Time;durP1;ratioP1;P1;durP2;ratioP2;P2;SDS_P1;SDS_P2;PMS_P1;PMS_P2;Temp;Humidity;BMP_temperature;BMP_pressure;BME280_temperature;BME280_humidity;BME280_pressure;Samples;Min_cycle;Max_cycle;Signal;HPM_P1;HPM_P2
2021/08/21 00:00:00;;;;;;;6.75;5.38;;;16.60;99.90;;;;;;4967253;28;20189;-79
2021/08/21 00:02:27;;;;;;;6.20;5.10;;;16.50;99.90;;;;;;4968158;28;20189;-79
2021/08/21 00:04:52;;;;;;;6.97;4.80;;;16.40;99.90;;;;;;4967101;28;20181;-79
2021/08/21 00:07:18;;;;;;;5.72;4.53;;;16.40;99.90;;;;;;4970058;28;20673;-78
2021/08/21 00:09:46;;;;;;;5.80;5.05;;;16.40;99.90;;;;;;4968688;28;20587;-78
2021/08/21 00:12:11;;;;;;;5.53;4.45;;;16.40;99.90;;;;;;4968893;28;20571;-79
2021/08/21 00:14:37;;;;;;;5.82;4.75;;;16.50;99.90;;;;;;4967369;28;20177;-79
2021/08/21 00:17:03;;;;;;;7.07;4.93;;;16.50;99.90;;;;;;4968878;28;20181;-77
2021/08/21 00:19:29;;;;;;;5.13;4.53;;;16.50;99.90;;;;;;4968834;28;20235;-78
2021/08/21 00:21:54;;;;;;;5.28;4.50;;;16.60;99.90;;;;;;4968632;28;20192;-78
2021/08/21 00:24:20;;;;;;;5.30;4.53;;;16.60;99.90;;;;;;4958577;28;20188;-78
2021/08/21 00:26:46;;;;;;;7.57;4.85;;;16.50;99.90;;;;;;4967840;28;20284;-78
2021/08/21 00:29:12;;;;;;;7.25;4.63;;;16.40;99.90;;;;;;4974448;28;20328;-79
2021/08/21 00:31:39;;;;;;;5.25;4.55;;;16.40;99.90;;;;;;4969014;28;20315;-78
2021/08/21 00:34:05;;;;;;;5.97;4.75;;;16.30;99.90;;;;;;4982210;28;20199;-78
2021/08/21 00:36:30;;;;;;;7.20;5.00;;;16.30;99.90;;;;;;4967407;28;20188;-79
2021/08/21 00:38:56;;;;;;;5.28;4.70;;;16.30;99.90;;;;;;4973713;28;20629;-78
2021/08/21 00:41:22;;;;;;;6.03;4.78;;;16.30;99.90;;;;;;4966858;28;20188;-80
2021/08/21 00:43:49;;;;;;;5.20;4.45;;;16.30;99.90;;;;;;4968460;28;20181;-78
2021/08/21 00:46:15;;;;;;;6.05;5.10;;;16.20;99.90;;;;;;4968019;28;20197;-77
2021/08/21 00:48:41;;;;;;;5.72;4.72;;;16.20;99.90;;;;;;4968302;28;20951;-79
2021/08/21 00:51:06;;;;;;;5.72;4.35;;;16.20;99.90;;;;;;4968015;28;20192;-78
2021/08/21 00:53:33;;;;;;;6.07;4.60;;;16.20;99.90;;;;;;4968532;28;20247;-78
2021/08/21 00:56:02;;;;;;;6.72;4.50;;;16.20;99.90;;;;;;4967471;28;20240;-77
2021/08/21 00:58:30;;;;;;;6.25;5.15;;;16.20;99.90;;;;;;4967286;28;20206;-77
2021/08/21 01:00:55;;;;;;;5.05;4.07;;;16.20;99.90;;;;;;4966561;28;20220;-77
2021/08/21 01:03:21;;;;;;;5.63;4.45;;;16.20;99.90;;;;;;4967877;28;20215;-78
2021/08/21 01:05:47;;;;;;;5.13;4.60;;;16.20;99.90;;;;;;4967766;28;20197;-77
2021/08/21 01:08:13;;;;;;;5.05;3.92;;;16.20;99.90;;;;;;4968136;28;20197;-77
2021/08/21 01:10:38;;;;;;;4.68;4.18;;;16.20;99.90;;;;;;4967613;28;20694;-77
2021/08/21 01:13:04;;;;;;;5.03;4.47;;;16.20;99.90;;;;;;4967901;28;20213;-78
2021/08/21 01:15:30;;;;;;;4.68;3.97;;;16.20;99.90;;;;;;4967704;28;20327;-79
2021/08/21 01:17:56;;;;;;;5.00;4.18;;;16.30;99.90;;;;;;4972162;28;20367;-77
2021/08/21 01:20:23;;;;;;;4.93;4.10;;;16.30;99.90;;;;;;4970983;28;20251;-77
2021/08/21 01:22:49;;;;;;;7.60;4.82;;;16.20;99.90;;;;;;4986139;28;20193;-78
2021/08/21 01:25:23;;;;;;;5.43;4.38;;;16.20;99.90;;;;;;4969839;28;21211;-77
2021/08/21 01:27:49;;;;;;;6.45;4.43;;;16.20;99.90;;;;;;4985702;28;21181;-78
2021/08/21 01:30:14;;;;;;;5.57;4.53;;;16.20;99.90;;;;;;4971085;28;20193;-77
2021/08/21 01:32:40;;;;;;;5.88;4.57;;;16.20;99.90;;;;;;4969750;28;20243;-78
2021/08/21 01:35:07;;;;;;;6.40;5.13;;;16.20;99.90;;;;;;4971016;28;20189;-78
2021/08/21 01:37:32;;;;;;;5.32;4.82;;;16.20;99.90;;;;;;4970796;28;20196;-78
2021/08/21 01:39:58;;;;;;;6.80;5.15;;;16.10;99.90;;;;;;4970619;28;20185;-77
2021/08/21 01:42:25;;;;;;;6.18;5.00;;;16.10;99.90;;;;;;4977983;28;20224;-78
2021/08/21 01:44:51;;;;;;;6.53;5.03;;;16.10;99.90;;;;;;4970551;28;20953;-77
2021/08/21 01:47:17;;;;;;;5.40;4.80;;;16.00;99.90;;;;;;4971079;28;20205;-77
2021/08/21 01:50:10;;;;;;;5.57;4.97;;;16.00;99.90;;;;;;4970532;28;20208;-77
2021/08/21 01:52:35;;;;;;;7.03;6.03;;;16.10;99.90;;;;;;4971351;28;20620;-78
2021/08/21 01:55:01;;;;;;;5.63;5.03;;;16.10;99.90;;;;;;4970175;28;20192;-78
2021/08/21 01:57:27;;;;;;;6.65;5.57;;;16.10;99.90;;;;;;4971320;28;20185;-78
2021/08/21 01:59:53;;;;;;;6.93;5.35;;;16.10;99.90;;;;;;4969969;28;20213;-77
2021/08/21 02:02:21;;;;;;;7.20;5.57;;;16.10;99.90;;;;;;4970271;28;20762;-77
2021/08/21 02:04:46;;;;;;;6.22;5.32;;;16.20;99.90;;;;;;4969864;28;20276;-77
2021/08/21 02:07:12;;;;;;;6.65;5.75;;;16.20;99.90;;;;;;4970529;28;20300;-77
2021/08/21 02:09:38;;;;;;;6.53;5.82;;;16.20;99.90;;;;;;4970018;28;20223;-77
2021/08/21 02:12:05;;;;;;;6.32;5.43;;;16.20;99.90;;;;;;4977062;28;21048;-77
2021/08/21 02:14:31;;;;;;;7.93;5.75;;;16.20;99.90;;;;;;4969647;28;20655;-77
2021/08/21 02:16:59;;;;;;;6.32;5.32;;;16.20;99.90;;;;;;4968623;28;20185;-76
2021/08/21 02:19:25;;;;;;;6.20;5.22;;;16.20;99.90;;;;;;4969445;28;20322;-77
2021/08/21 02:21:52;;;;;;;6.40;5.70;;;16.20;99.90;;;;;;4969335;28;20260;-76
2021/08/21 02:24:28;;;;;;;8.20;5.88;;;16.20;99.90;;;;;;4969048;28;20243;-77
2021/08/21 02:26:58;;;;;;;6.55;5.57;;;16.10;99.90;;;;;;4969358;28;20176;-76
2021/08/21 02:29:24;;;;;;;5.88;5.22;;;16.10;99.90;;;;;;4967151;28;20680;-78
2021/08/21 02:31:50;;;;;;;6.20;5.47;;;16.10;99.90;;;;;;4967859;28;20209;-77
2021/08/21 02:34:16;;;;;;;6.85;5.78;;;16.00;99.90;;;;;;4960533;28;20275;-79
2021/08/21 02:36:42;;;;;;;8.02;6.47;;;16.00;99.90;;;;;;4977203;28;20203;-76
2021/08/21 02:39:09;;;;;;;7.72;6.03;;;16.00;99.90;;;;;;4971007;28;20201;-79
2021/08/21 02:41:35;;;;;;;6.95;5.65;;;15.90;99.90;;;;;;4970489;28;20565;-79
2021/08/21 02:44:01;;;;;;;7.45;5.95;;;15.90;99.90;;;;;;4970128;28;20203;-77
2021/08/21 02:46:26;;;;;;;9.27;5.43;;;15.80;99.90;;;;;;4970643;28;20226;-77
2021/08/21 02:48:52;;;;;;;6.18;5.47;;;15.80;99.90;;;;;;4961434;28;20299;-77
2021/08/21 02:51:18;;;;;;;8.63;6.45;;;15.80;99.90;;;;;;4970064;28;20217;-78
2021/08/21 02:53:43;;;;;;;5.72;5.00;;;15.80;99.90;;;;;;4970384;28;20183;-77
2021/08/21 02:56:09;;;;;;;6.68;5.45;;;15.80;99.90;;;;;;4961967;28;20284;-78
2021/08/21 02:58:35;;;;;;;6.18;5.57;;;15.70;99.90;;;;;;4970417;28;20213;-77
2021/08/21 03:01:00;;;;;;;6.78;6.00;;;15.70;99.90;;;;;;4968971;28;20201;-78
2021/08/21 03:03:26;;;;;;;7.63;6.15;;;15.80;99.90;;;;;;4970556;28;20869;-79
2021/08/21 03:05:51;;;;;;;8.38;6.20;;;15.80;99.90;;;;;;4970017;28;20177;-77
2021/08/21 03:08:17;;;;;;;8.60;6.10;;;15.90;99.90;;;;;;4969161;28;20239;-77
2021/08/21 03:10:42;;;;;;;9.05;5.68;;;15.80;99.90;;;;;;4969765;28;20669;-79
2021/08/21 03:13:09;;;;;;;7.20;5.57;;;15.90;99.90;;;;;;4968782;28;20236;-78
2021/08/21 03:15:35;;;;;;;7.97;5.68;;;15.90;99.90;;;;;;4969419;28;20267;-77
2021/08/21 03:18:01;;;;;;;7.57;5.57;;;15.90;99.90;;;;;;4961635;28;20292;-77
2021/08/21 03:20:27;;;;;;;6.03;5.43;;;15.90;99.90;;;;;;4969662;28;20201;-77
2021/08/21 03:22:53;;;;;;;7.03;5.72;;;16.00;99.90;;;;;;4969931;28;20203;-77
2021/08/21 03:25:19;;;;;;;8.15;6.22;;;15.90;99.90;;;;;;4969410;28;20247;-78
2021/08/21 03:27:45;;;;;;;8.50;6.57;;;15.80;99.90;;;;;;4970284;28;20718;-77
2021/08/21 03:30:11;;;;;;;9.13;6.85;;;15.70;99.90;;;;;;4975540;28;20196;-78
2021/08/21 03:32:37;;;;;;;8.98;6.57;;;15.60;99.90;;;;;;4969004;28;20212;-77
2021/08/21 03:35:04;;;;;;;8.60;6.60;;;15.60;99.90;;;;;;4969047;28;20239;-77
2021/08/21 03:37:29;;;;;;;7.05;6.00;;;15.50;99.90;;;;;;4968011;28;20193;-77
2021/08/21 03:39:55;;;;;;;8.02;5.70;;;15.50;99.90;;;;;;4968463;28;20690;-77
2021/08/21 03:42:21;;;;;;;8.35;6.28;;;15.40;99.90;;;;;;4984134;28;20185;-78
2021/08/21 03:44:48;;;;;;;7.78;6.03;;;15.40;99.90;;;;;;4969285;28;20211;-78
2021/08/21 03:47:13;;;;;;;7.65;5.88;;;15.30;99.90;;;;;;4969376;28;20594;-77
2021/08/21 03:49:39;;;;;;;6.28;5.55;;;15.30;99.90;;;;;;4969116;28;20213;-79
2021/08/21 03:52:05;;;;;;;6.47;5.30;;;15.20;99.90;;;;;;4967674;28;20211;-78
2021/08/21 03:54:30;;;;;;;6.32;5.18;;;15.30;99.90;;;;;;4967456;28;20196;-77
2021/08/21 03:56:56;;;;;;;8.25;5.93;;;15.20;99.90;;;;;;4968078;28;20271;-80
2021/08/21 03:59:22;;;;;;;7.18;5.93;;;15.30;99.90;;;;;;4968580;28;20197;-80
2021/08/21 04:01:48;;;;;;;6.38;5.30;;;15.20;99.90;;;;;;4976155;28;20180;-78
2021/08/21 04:04:13;;;;;;;6.03;5.20;;;15.20;99.90;;;;;;4968692;28;20538;-78
2021/08/21 04:06:40;;;;;;;6.68;4.93;;;15.20;99.90;;;;;;4968826;28;20193;-78
2021/08/21 04:09:06;;;;;;;5.53;4.72;;;15.20;99.90;;;;;;4969030;28;20240;-77
2021/08/21 04:11:32;;;;;;;7.20;5.32;;;15.20;99.90;;;;;;4968945;28;20209;-77
2021/08/21 04:13:57;;;;;;;7.72;5.65;;;15.20;99.90;;;;;;4968429;28;20188;-77
2021/08/21 04:16:23;;;;;;;6.90;5.47;;;15.10;99.90;;;;;;4959164;28;20248;-77
2021/08/21 04:18:48;;;;;;;8.52;6.13;;;15.10;99.90;;;;;;4968582;28;20209;-78
2021/08/21 04:21:14;;;;;;;8.43;5.03;;;15.00;99.90;;;;;;4967834;28;20223;-78
2021/08/21 04:23:40;;;;;;;6.03;5.15;;;15.00;99.90;;;;;;4968935;28;20510;-78
2021/08/21 04:26:06;;;;;;;5.90;4.13;;;14.90;99.90;;;;;;4968711;28;20702;-77
2021/08/21 04:28:32;;;;;;;5.93;4.88;;;14.90;99.90;;;;;;4968737;28;20217;-77
2021/08/21 04:30:58;;;;;;;6.20;4.70;;;14.80;99.90;;;;;;4960015;28;20177;-78
2021/08/21 04:33:24;;;;;;;5.70;4.97;;;14.80;99.90;;;;;;4967009;28;20231;-77
2021/08/21 04:35:50;;;;;;;6.15;4.50;;;14.80;99.90;;;;;;4967578;28;20193;-77
2021/08/21 04:38:17;;;;;;;4.90;4.25;;;14.80;99.90;;;;;;4967212;28;20205;-78
2021/08/21 04:40:44;;;;;;;5.68;4.35;;;14.80;99.90;;;;;;4982774;28;20279;-78
2021/08/21 04:43:10;;;;;;;5.65;4.70;;;14.90;99.90;;;;;;4974527;28;20192;-78
2021/08/21 04:45:37;;;;;;;6.47;5.00;;;14.90;99.90;;;;;;4967517;28;20188;-78
2021/08/21 04:48:02;;;;;;;6.80;5.10;;;15.00;99.90;;;;;;4968299;28;20299;-77
2021/08/21 04:50:28;;;;;;;6.68;5.45;;;15.10;99.90;;;;;;4967529;28;20303;-78
2021/08/21 04:52:54;;;;;;;6.13;5.28;;;15.10;99.90;;;;;;4974937;28;20816;-77
2021/08/21 04:55:19;;;;;;;6.63;4.97;;;15.20;99.90;;;;;;4967624;28;20189;-77
2021/08/21 04:57:45;;;;;;;7.20;5.25;;;15.10;99.90;;;;;;4966256;28;20276;-77
2021/08/21 05:00:11;;;;;;;5.18;4.45;;;15.20;99.90;;;;;;4967586;28;20315;-78
2021/08/21 05:02:37;;;;;;;6.15;5.15;;;15.20;99.90;;;;;;4966398;28;20193;-77
2021/08/21 05:05:02;;;;;;;5.50;4.68;;;15.30;99.90;;;;;;4965910;28;20239;-77
2021/08/21 05:07:28;;;;;;;6.68;5.28;;;15.50;99.90;;;;;;4957672;28;20227;-77
2021/08/21 05:09:54;;;;;;;5.22;4.70;;;15.60;99.90;;;;;;4966221;28;20755;-79
2021/08/21 05:12:19;;;;;;;5.32;4.72;;;15.90;99.90;;;;;;4965844;28;20255;-77
2021/08/21 05:14:45;;;;;;;5.63;5.00;;;16.00;99.90;;;;;;4967371;28;20260;-77
2021/08/21 05:17:10;;;;;;;5.88;4.88;;;16.10;99.90;;;;;;4958224;28;20184;-78
2021/08/21 05:19:51;;;;;;;6.70;4.47;;;16.30;99.90;;;;;;4967012;28;20303;-76
2021/08/21 05:24:45;;;;;;;5.50;4.50;;;16.60;99.90;;;;;;4967039;28;20348;-76
2021/08/21 05:27:11;;;;;;;5.70;4.97;;;16.80;99.90;;;;;;4966615;28;20269;-77
2021/08/21 05:29:37;;;;;;;4.90;3.83;;;17.00;99.90;;;;;;4966790;28;20211;-76
2021/08/21 05:32:04;;;;;;;5.53;4.53;;;17.10;99.90;;;;;;4966357;28;20201;-77
2021/08/21 05:34:29;;;;;;;7.80;4.03;;;17.50;99.90;;;;;;4965995;28;20199;-77
2021/08/21 05:36:55;;;;;;;5.82;4.43;;;17.70;99.90;;;;;;4964874;28;20185;-78
2021/08/21 05:39:20;;;;;;;4.55;4.10;;;18.10;99.90;;;;;;4965113;28;20216;-76
2021/08/21 05:41:46;;;;;;;5.75;4.18;;;18.30;99.90;;;;;;4967499;28;20189;-78
2021/08/21 05:44:11;;;;;;;4.05;3.65;;;18.60;99.90;;;;;;4966144;28;20196;-77
2021/08/21 05:46:37;;;;;;;6.28;4.10;;;18.70;99.90;;;;;;4967521;28;20193;-78
2021/08/21 05:49:02;;;;;;;4.85;3.90;;;18.90;99.90;;;;;;4958478;28;20296;-79
2021/08/21 05:51:31;;;;;;;5.50;3.88;;;19.10;99.90;;;;;;4967626;28;20679;-79
2021/08/21 05:53:57;;;;;;;6.68;4.13;;;19.40;99.90;;;;;;4967428;28;20728;-78
2021/08/21 05:56:23;;;;;;;4.65;3.78;;;19.50;99.90;;;;;;4967318;28;20204;-78
2021/08/21 05:58:49;;;;;;;5.03;4.13;;;19.70;99.90;;;;;;4966606;28;20235;-78
2021/08/21 06:01:15;;;;;;;4.70;4.20;;;19.90;99.90;;;;;;4967309;28;20208;-78
2021/08/21 06:03:40;;;;;;;4.78;4.22;;;20.00;99.90;;;;;;4969045;28;20222;-78
2021/08/21 06:06:11;;;;;;;5.50;3.75;;;20.20;99.90;;;;;;4960675;28;20181;-78
2021/08/21 06:08:36;;;;;;;4.78;4.28;;;20.40;99.90;;;;;;4970581;28;20204;-78
2021/08/21 06:11:02;;;;;;;5.35;4.13;;;20.60;99.90;;;;;;4969164;28;20222;-78
2021/08/21 06:13:28;;;;;;;4.50;4.10;;;20.60;99.90;;;;;;4960280;28;20331;-78
2021/08/21 06:15:53;;;;;;;5.30;4.55;;;20.80;99.90;;;;;;4969928;28;20196;-77
2021/08/21 06:18:19;;;;;;;5.28;4.40;;;21.00;99.90;;;;;;4970616;28;20213;-78
2021/08/21 06:20:45;;;;;;;5.68;5.00;;;21.10;99.90;;;;;;4969920;28;20197;-77
2021/08/21 06:23:10;;;;;;;6.15;5.03;;;21.30;99.90;;;;;;4970138;28;20243;-79
2021/08/21 06:25:36;;;;;;;5.72;4.95;;;21.40;99.90;;;;;;4968238;28;20197;-79
2021/08/21 06:28:01;;;;;;;6.63;4.82;;;21.50;99.90;;;;;;4964863;28;20267;-79
2021/08/21 06:30:27;;;;;;;7.28;4.78;;;21.60;99.90;;;;;;4969409;28;20215;-78
2021/08/21 06:32:53;;;;;;;5.40;4.85;;;21.60;99.90;;;;;;4959943;28;20217;-78
2021/08/21 06:35:18;;;;;;;6.10;4.82;;;21.70;99.90;;;;;;4968901;28;20216;-78
2021/08/21 06:37:44;;;;;;;6.40;5.28;;;21.80;99.90;;;;;;4969779;28;20177;-80
2021/08/21 06:40:10;;;;;;;6.22;5.25;;;21.70;99.90;;;;;;4969487;28;20193;-78
2021/08/21 06:42:35;;;;;;;6.13;5.30;;;21.50;99.90;;;;;;4969746;28;20246;-79
2021/08/21 06:45:01;;;;;;;5.63;4.60;;;21.20;99.90;;;;;;4968859;28;20557;-77
2021/08/21 06:47:27;;;;;;;7.25;5.68;;;20.90;99.90;;;;;;4968817;28;20612;-78
2021/08/21 06:49:53;;;;;;;6.47;5.35;;;20.80;99.90;;;;;;4977220;28;20213;-79
2021/08/21 06:52:19;;;;;;;6.63;5.32;;;20.70;99.90;;;;;;4968787;28;20216;-78
2021/08/21 06:54:45;;;;;;;6.82;5.40;;;20.50;99.90;;;;;;4970035;28;20268;-76
2021/08/21 06:57:10;;;;;;;6.75;5.95;;;20.50;99.90;;;;;;4970016;28;20260;-77
2021/08/21 06:59:36;;;;;;;8.25;5.97;;;20.40;99.90;;;;;;4968793;28;20213;-77
2021/08/21 07:02:03;;;;;;;7.93;5.70;;;20.40;99.90;;;;;;4970003;28;20195;-77
2021/08/21 07:04:29;;;;;;;8.52;5.80;;;20.50;99.90;;;;;;4961923;28;20192;-77
2021/08/21 07:06:55;;;;;;;6.03;4.93;;;20.60;99.90;;;;;;4969017;28;20193;-77
2021/08/21 07:09:20;;;;;;;7.35;5.65;;;20.50;99.90;;;;;;4968675;28;20219;-77
2021/08/21 07:11:46;;;;;;;7.07;5.43;;;20.60;99.90;;;;;;4969008;28;20212;-77
2021/08/21 07:14:11;;;;;;;6.32;5.35;;;20.60;99.90;;;;;;4968584;28;20189;-77
2021/08/21 07:16:37;;;;;;;6.32;5.63;;;20.70;99.90;;;;;;4970065;28;20189;-77
2021/08/21 07:19:05;;;;;;;7.88;5.90;;;20.90;99.90;;;;;;4967934;28;20224;-76
2021/08/21 07:21:31;;;;;;;6.85;5.78;;;20.90;99.90;;;;;;4953672;28;20185;-76
2021/08/21 07:23:56;;;;;;;7.43;5.60;;;20.90;99.90;;;;;;4968921;28;20192;-77
2021/08/21 07:26:22;;;;;;;7.88;6.10;;;21.00;99.90;;;;;;4968216;28;20659;-77
2021/08/21 07:28:48;;;;;;;7.72;5.60;;;21.10;99.90;;;;;;4967760;28;20586;-77
2021/08/21 07:31:13;;;;;;;7.93;5.50;;;21.20;99.90;;;;;;4962760;28;20185;-76
2021/08/21 07:33:39;;;;;;;7.35;6.07;;;21.20;99.90;;;;;;4968620;28;20193;-78
2021/08/21 07:36:04;;;;;;;6.60;5.30;;;21.20;99.90;;;;;;4967486;28;20185;-77
2021/08/21 07:38:30;;;;;;;7.03;5.43;;;21.20;99.90;;;;;;4969379;28;20197;-77
2021/08/21 07:40:56;;;;;;;10.82;5.93;;;21.40;99.90;;;;;;4968687;28;20181;-77
2021/08/21 07:43:21;;;;;;;6.82;5.47;;;21.40;99.90;;;;;;4968337;28;20188;-78
2021/08/21 07:45:47;;;;;;;7.22;6.05;;;21.60;99.90;;;;;;4968346;28;20236;-76
2021/08/21 07:48:14;;;;;;;7.72;5.90;;;21.70;99.90;;;;;;4968346;28;20216;-77
2021/08/21 07:50:40;;;;;;;7.32;5.95;;;21.70;99.90;;;;;;4967998;28;20193;-76
2021/08/21 07:53:05;;;;;;;7.65;6.07;;;21.60;99.90;;;;;;4966399;28;20216;-78
2021/08/21 07:55:31;;;;;;;8.85;5.80;;;21.70;99.90;;;;;;4966639;28;20192;-77
2021/08/21 07:57:57;;;;;;;8.48;5.90;;;21.80;99.90;;;;;;4967221;28;20236;-76
2021/08/21 08:00:22;;;;;;;8.23;6.30;;;22.10;99.90;;;;;;4966447;28;20670;-77
2021/08/21 08:02:48;;;;;;;10.02;6.57;;;22.20;99.90;;;;;;4967550;28;20185;-76
2021/08/21 08:05:14;;;;;;;11.80;6.65;;;22.40;99.90;;;;;;4968346;28;20211;-76
2021/08/21 08:07:39;;;;;;;8.70;6.47;;;22.40;99.90;;;;;;4968480;28;20255;-76
2021/08/21 08:10:06;;;;;;;10.27;7.25;;;22.60;99.90;;;;;;4968649;28;20196;-76
2021/08/21 08:12:31;;;;;;;8.88;6.50;;;22.60;99.90;;;;;;4969188;28;20219;-76
2021/08/21 08:14:58;;;;;;;10.82;7.75;;;22.60;99.90;;;;;;4975641;28;20189;-76
2021/08/21 08:17:24;;;;;;;11.30;7.85;;;22.60;99.90;;;;;;4960190;28;20189;-77
2021/08/21 08:19:50;;;;;;;9.85;7.82;;;22.50;99.90;;;;;;4968918;28;20705;-76
2021/08/21 08:22:16;;;;;;;11.05;7.60;;;22.50;99.90;;;;;;4969439;28;20200;-76
2021/08/21 08:24:42;;;;;;;10.18;7.47;;;22.50;99.90;;;;;;4968649;28;21213;-77
2021/08/21 08:27:07;;;;;;;12.75;8.15;;;22.60;99.90;;;;;;4968354;28;20248;-77
2021/08/21 08:29:33;;;;;;;11.63;8.32;;;22.60;99.90;;;;;;4968180;28;20603;-76
2021/08/21 08:31:58;;;;;;;11.68;7.60;;;22.70;99.90;;;;;;4968477;28;20213;-77
2021/08/21 08:34:24;;;;;;;12.98;8.77;;;22.80;99.90;;;;;;4969418;28;20185;-77
2021/08/21 08:36:50;;;;;;;13.13;8.85;;;23.00;99.90;;;;;;4969557;28;20189;-77
2021/08/21 08:39:15;;;;;;;12.32;7.47;;;22.80;99.90;;;;;;4968590;28;20205;-77
2021/08/21 08:41:42;;;;;;;13.52;8.77;;;22.90;99.90;;;;;;4957796;28;20192;-78
2021/08/21 08:44:11;;;;;;;12.40;8.02;;;23.10;99.90;;;;;;4960999;28;20192;-76
2021/08/21 08:46:37;;;;;;;12.40;8.00;;;23.10;99.90;;;;;;4967489;28;20224;-78
2021/08/21 08:49:05;;;;;;;10.32;8.50;;;23.10;99.90;;;;;;4966850;28;20267;-77
2021/08/21 08:51:32;;;;;;;13.90;9.15;;;23.10;99.90;;;;;;4965344;28;20251;-78
2021/08/21 08:53:57;;;;;;;11.48;8.40;;;23.10;99.90;;;;;;4966333;28;20520;-77
2021/08/21 08:56:23;;;;;;;10.75;8.27;;;23.00;99.90;;;;;;4967110;28;20216;-77
2021/08/21 08:58:48;;;;;;;10.75;7.95;;;23.20;99.90;;;;;;4967460;28;20648;-76
2021/08/21 09:01:14;;;;;;;12.00;8.82;;;23.50;99.90;;;;;;4964084;28;20489;-77
2021/08/21 09:03:40;;;;;;;11.75;8.85;;;23.90;99.90;;;;;;4965069;28;20220;-77
2021/08/21 09:06:05;;;;;;;11.90;8.98;;;24.00;99.90;;;;;;4965907;28;20703;-77
2021/08/21 09:08:33;;;;;;;11.32;8.10;;;24.20;99.90;;;;;;4964852;28;20209;-77
2021/08/21 09:11:16;;;;;;;12.88;9.38;;;24.40;99.90;;;;;;4965176;28;20189;-78
2021/08/21 09:13:42;;;;;;;10.48;8.65;;;24.40;99.90;;;;;;4967201;28;20185;-77
2021/08/21 09:16:08;;;;;;;9.70;8.30;;;24.60;99.90;;;;;;4952506;28;20678;-77
2021/08/21 09:18:33;;;;;;;11.90;9.27;;;24.60;99.90;;;;;;4967443;28;20204;-77
2021/08/21 09:21:02;;;;;;;12.20;9.52;;;24.60;99.90;;;;;;4965348;28;20211;-77
2021/08/21 09:23:31;;;;;;;13.25;8.55;;;24.30;99.90;;;;;;4966935;28;20189;-78
2021/08/21 09:26:10;;;;;;;11.07;8.32;;;23.50;99.90;;;;;;4967380;28;20185;-78
2021/08/21 09:28:37;;;;;;;12.15;8.63;;;23.20;99.90;;;;;;4967782;28;20231;-78
2021/08/21 09:31:09;;;;;;;12.48;9.85;;;23.00;99.90;;;;;;4966966;28;20912;-77
2021/08/21 09:33:39;;;;;;;10.88;8.95;;;23.00;99.90;;;;;;4965933;28;20316;-77
2021/08/21 09:36:12;;;;;;;11.50;9.68;;;23.10;99.90;;;;;;4966481;28;20181;-77
2021/08/21 09:38:38;;;;;;;11.35;8.73;;;23.50;99.90;;;;;;4971172;28;20233;-77
2021/08/21 09:41:09;;;;;;;11.40;9.07;;;23.60;99.90;;;;;;4970023;28;20253;-77
2021/08/21 09:43:37;;;;;;;9.18;7.68;;;23.90;99.90;;;;;;4969147;28;20251;-77
2021/08/21 09:46:12;;;;;;;7.93;6.10;;;23.70;99.90;;;;;;4977009;28;20201;-77
2021/08/21 09:49:06;;;;;;;7.43;5.95;;;23.60;99.90;;;;;;4969814;28;20215;-78
2021/08/21 09:51:46;;;;;;;7.90;6.72;;;23.40;99.90;;;;;;4970608;28;20494;-78
2021/08/21 09:54:20;;;;;;;9.13;7.32;;;23.50;99.90;;;;;;4969638;28;20219;-76
2021/08/21 09:56:53;;;;;;;8.80;6.50;;;23.80;99.90;;;;;;4968579;28;20196;-78
2021/08/21 09:59:35;;;;;;;8.52;6.22;;;24.20;99.90;;;;;;4969522;28;20709;-77
2021/08/21 10:02:10;;;;;;;9.00;6.60;;;24.40;99.90;;;;;;4968226;28;20203;-77
2021/08/21 10:04:37;;;;;;;9.35;7.00;;;24.80;99.90;;;;;;4968881;28;20196;-76
2021/08/21 10:07:05;;;;;;;7.45;6.63;;;25.00;99.90;;;;;;4964377;28;20189;-78
2021/08/21 10:09:37;;;;;;;7.65;6.65;;;25.10;99.90;;;;;;4967274;28;20579;-78
2021/08/21 10:12:05;;;;;;;8.30;6.20;;;25.30;99.90;;;;;;4962545;28;20216;-78
2021/08/21 10:14:31;;;;;;;7.95;6.13;;;25.10;99.90;;;;;;4969198;28;20300;-78
2021/08/21 10:16:57;;;;;;;5.88;5.00;;;24.90;99.90;;;;;;4978019;28;20233;-78
2021/08/21 10:19:24;;;;;;;6.60;5.72;;;24.90;99.90;;;;;;4971199;28;20221;-78
2021/08/21 10:22:00;;;;;;;7.18;5.35;;;25.10;99.90;;;;;;4970626;28;20896;-78
2021/08/21 10:24:30;;;;;;;6.97;5.38;;;25.30;99.90;;;;;;4967151;28;20198;-78
2021/08/21 10:27:09;;;;;;;7.28;5.40;;;25.30;99.90;;;;;;4968757;28;20198;-78
2021/08/21 10:29:35;;;;;;;7.55;5.18;;;25.30;99.90;;;;;;4959372;28;20215;-78
2021/08/21 10:32:01;;;;;;;7.43;4.90;;;25.10;99.90;;;;;;4969217;28;20209;-78
2021/08/21 10:34:49;;;;;;;6.38;4.95;;;25.30;99.90;;;;;;4982725;28;20196;-76
2021/08/21 10:37:31;;;;;;;6.00;5.40;;;25.30;99.90;;;;;;4965738;28;20208;-76
2021/08/21 10:39:57;;;;;;;6.13;5.28;;;25.30;99.90;;;;;;4965398;28;21013;-76
2021/08/21 10:42:34;;;;;;;6.28;5.32;;;25.20;99.90;;;;;;4967312;28;20288;-76
2021/08/21 10:45:00;;;;;;;6.90;5.30;;;24.80;99.90;;;;;;4965252;28;20185;-76
2021/08/21 10:47:32;;;;;;;5.90;4.80;;;25.00;99.90;;;;;;4967047;28;20251;-76
2021/08/21 10:50:17;;;;;;;6.00;5.10;;;25.40;99.90;;;;;;4973254;28;20242;-76
2021/08/21 10:52:53;;;;;;;7.10;5.25;;;25.70;99.90;;;;;;4963364;28;20674;-77
2021/08/21 10:55:22;;;;;;;6.38;4.88;;;25.80;99.90;;;;;;4974287;28;20664;-78
2021/08/21 10:57:57;;;;;;;5.85;4.75;;;26.00;99.90;;;;;;4964838;28;20177;-77
2021/08/21 11:00:50;;;;;;;6.43;4.32;;;26.40;99.90;;;;;;4967794;28;20181;-77
2021/08/21 11:03:25;;;;;;;4.72;4.22;;;26.30;99.90;;;;;;4968249;28;20726;-77
2021/08/21 11:06:06;;;;;;;4.88;4.38;;;26.50;99.90;;;;;;4970510;28;20185;-77
2021/08/21 11:08:53;;;;;;;4.78;4.28;;;26.70;99.90;;;;;;4966803;28;20675;-77
2021/08/21 11:11:32;;;;;;;5.38;4.88;;;26.90;99.90;;;;;;4964726;28;20193;-78
2021/08/21 11:16:50;;;;;;;5.03;4.53;;;26.60;99.90;;;;;;4966386;28;20185;-77
2021/08/21 11:19:25;;;;;;;5.70;4.93;;;26.60;99.90;;;;;;4968083;28;20216;-78
2021/08/21 11:21:52;;;;;;;4.70;4.10;;;26.70;99.90;;;;;;4969237;28;20516;-78
2021/08/21 11:24:28;;;;;;;5.60;5.07;;;26.80;99.90;;;;;;4970121;28;20185;-78
2021/08/21 11:27:22;;;;;;;4.70;4.30;;;26.90;99.90;;;;;;4983471;28;20219;-78
2021/08/21 11:30:06;;;;;;;6.68;4.93;;;26.90;99.90;;;;;;4968873;28;20232;-78
2021/08/21 11:32:43;;;;;;;5.65;5.05;;;26.00;99.90;;;;;;4967679;28;20263;-77
2021/08/21 11:35:15;;;;;;;5.30;4.47;;;25.80;99.90;;;;;;4965127;28;20219;-76
2021/08/21 11:37:49;;;;;;;5.97;4.90;;;25.90;99.90;;;;;;4965948;28;20197;-78
2021/08/21 11:40:16;;;;;;;5.85;5.10;;;26.00;99.90;;;;;;4972822;28;20693;-78
2021/08/21 11:43:02;;;;;;;7.03;5.55;;;26.10;99.90;;;;;;4966506;28;20955;-79
2021/08/21 11:45:28;;;;;;;8.00;6.35;;;26.10;99.90;;;;;;4968352;28;20220;-79
2021/08/21 11:47:55;;;;;;;5.50;5.00;;;25.90;99.90;;;;;;4968065;28;20818;-79
2021/08/21 11:50:29;;;;;;;4.45;3.70;;;25.30;99.90;;;;;;4969663;28;20203;-79
2021/08/21 11:52:58;;;;;;;4.80;4.30;;;25.50;99.90;;;;;;4967674;28;20363;-79
2021/08/21 11:55:25;;;;;;;6.03;4.70;;;25.90;99.90;;;;;;4965202;28;20223;-79
2021/08/21 11:57:52;;;;;;;4.28;3.88;;;26.20;99.90;;;;;;4966763;28;20814;-80
2021/08/21 12:00:24;;;;;;;4.00;3.70;;;26.30;99.90;;;;;;4964754;28;20557;-79
2021/08/21 12:03:00;;;;;;;5.70;4.00;;;26.60;99.90;;;;;;4977330;28;20221;-78
2021/08/21 12:05:31;;;;;;;4.90;4.32;;;26.80;99.90;;;;;;4963813;28;20729;-79
2021/08/21 12:08:12;;;;;;;4.22;3.50;;;26.90;99.90;;;;;;4964374;28;20327;-81
2021/08/21 12:10:50;;;;;;;3.80;3.50;;;27.00;99.90;;;;;;4965806;28;21028;-78
2021/08/21 12:13:19;;;;;;;5.07;3.88;;;27.00;99.90;;;;;;4960443;28;20216;-79
2021/08/21 12:15:46;;;;;;;3.60;3.30;;;27.00;99.90;;;;;;4964619;28;20181;-79
2021/08/21 12:18:13;;;;;;;4.07;3.67;;;27.30;99.90;;;;;;4965848;28;20212;-79
2021/08/21 12:20:39;;;;;;;4.65;4.25;;;26.90;99.90;;;;;;4967122;28;20208;-79
2021/08/21 12:23:07;;;;;;;5.10;3.42;;;26.50;99.90;;;;;;4966175;28;20338;-78
2021/08/21 12:26:05;;;;;;;4.13;3.72;;;26.50;99.90;;;;;;4966754;28;20189;-79
2021/08/21 12:28:43;;;;;;;3.97;3.67;;;26.90;99.90;;;;;;4966696;28;20274;-79
2021/08/21 12:31:11;;;;;;;3.35;3.05;;;27.10;99.90;;;;;;4965556;28;20565;-79
2021/08/21 12:33:42;;;;;;;3.08;2.88;;;27.80;99.90;;;;;;4966036;28;20239;-79
2021/08/21 12:36:23;;;;;;;4.00;3.10;;;28.20;99.90;;;;;;4962447;28;20267;-79
2021/08/21 12:39:06;;;;;;;3.95;3.15;;;28.20;99.90;;;;;;4979916;28;20193;-79
2021/08/21 12:41:49;;;;;;;3.75;3.15;;;28.10;99.90;;;;;;4965640;28;20239;-79
2021/08/21 12:44:16;;;;;;;3.50;3.20;;;27.70;99.90;;;;;;4965257;28;20271;-79
2021/08/21 12:46:55;;;;;;;3.13;2.72;;;27.60;99.90;;;;;;4961073;28;21209;-78
2021/08/21 12:49:49;;;;;;;3.40;3.10;;;27.80;99.90;;;;;;4965916;28;20251;-79
2021/08/21 12:52:27;;;;;;;3.03;2.72;;;27.80;99.90;;;;;;4965297;28;20217;-79
2021/08/21 12:55:05;;;;;;;3.53;3.10;;;27.60;99.90;;;;;;4979880;28;20659;-79